sensor_id;sensor_type;location;lat;lon;timestamp;P1;durP1;ratioP1;P2;durP2;ratioP2
59512;SDS011;45330;51.634;5.562;2022-08-07T00:00:41;15.23;;;5.05;;
59512;SDS011;45330;51.634;5.562;2022-08-07T00:03:08;15.98;;;5.40;;
59512;SDS011;45330;51.634;5.562;2022-08-07T00:05:34;15.02;;;5.63;;
59512;SDS011;45330;51.634;5.562;2022-08-07T00:08:00;15.38;;;5.50;;
59512;SDS011;45330;51.634;5.562;2022-08-07T00:10:27;15.57;;;5.50;;
59512;SDS011;45330;51.634;5.562;2022-08-07T00:12:53;15.25;;;4.97;;
59512;SDS011;45330;51.634;5.562;2022-08-07T00:15:19;14.95;;;5.05;;
59512;SDS011;45330;51.634;5.562;2022-08-07T00:17:44;12.07;;;4.75;;
59512;SDS011;45330;51.634;5.562;2022-08-07T00:20:09;12.48;;;5.10;;
59512;SDS011;45330;51.634;5.562;2022-08-07T00:22:35;12.65;;;5.10;;
59512;SDS011;45330;51.634;5.562;2022-08-07T00:25:04;11.65;;;5.03;;
59512;SDS011;45330;51.634;5.562;2022-08-07T00:27:31;12.15;;;5.10;;
59512;SDS011;45330;51.634;5.562;2022-08-07T00:29:56;14.02;;;5.22;;
59512;SDS011;45330;51.634;5.562;2022-08-07T00:32:21;12.73;;;4.72;;
59512;SDS011;45330;51.634;5.562;2022-08-07T00:34:47;13.27;;;4.93;;
59512;SDS011;45330;51.634;5.562;2022-08-07T00:37:13;14.80;;;5.47;;
59512;SDS011;45330;51.634;5.562;2022-08-07T00:39:42;15.98;;;4.97;;
59512;SDS011;45330;51.634;5.562;2022-08-07T00:42:07;13.55;;;5.68;;
59512;SDS011;45330;51.634;5.562;2022-08-07T00:44:33;14.40;;;5.55;;
59512;SDS011;45330;51.634;5.562;2022-08-07T00:47:00;12.43;;;5.15;;
59512;SDS011;45330;51.634;5.562;2022-08-07T00:49:26;14.48;;;5.53;;
59512;SDS011;45330;51.634;5.562;2022-08-07T00:51:51;14.35;;;5.47;;
59512;SDS011;45330;51.634;5.562;2022-08-07T00:54:17;12.32;;;5.78;;
59512;SDS011;45330;51.634;5.562;2022-08-07T00:56:43;13.25;;;5.38;;
59512;SDS011;45330;51.634;5.562;2022-08-07T00:59:08;13.55;;;5.88;;
59512;SDS011;45330;51.634;5.562;2022-08-07T01:01:34;16.50;;;6.28;;
59512;SDS011;45330;51.634;5.562;2022-08-07T01:03:59;12.23;;;6.10;;
59512;SDS011;45330;51.634;5.562;2022-08-07T01:06:29;14.32;;;5.88;;
59512;SDS011;45330;51.634;5.562;2022-08-07T01:08:55;14.25;;;6.18;;
59512;SDS011;45330;51.634;5.562;2022-08-07T01:11:21;13.82;;;5.95;;
59512;SDS011;45330;51.634;5.562;2022-08-07T01:13:47;16.25;;;6.32;;
59512;SDS011;45330;51.634;5.562;2022-08-07T01:16:12;15.48;;;6.32;;
59512;SDS011;45330;51.634;5.562;2022-08-07T01:18:39;15.40;;;6.30;;
59512;SDS011;45330;51.634;5.562;2022-08-07T01:21:09;14.18;;;5.82;;
59512;SDS011;45330;51.634;5.562;2022-08-07T01:23:34;18.73;;;6.38;;
59512;SDS011;45330;51.634;5.562;2022-08-07T01:26:01;16.10;;;6.50;;
59512;SDS011;45330;51.634;5.562;2022-08-07T01:28:27;14.32;;;6.63;;
59512;SDS011;45330;51.634;5.562;2022-08-07T01:30:53;16.50;;;6.75;;
59512;SDS011;45330;51.634;5.562;2022-08-07T01:33:19;16.33;;;5.90;;
59512;SDS011;45330;51.634;5.562;2022-08-07T01:35:45;16.75;;;6.55;;
59512;SDS011;45330;51.634;5.562;2022-08-07T01:38:12;21.58;;;8.13;;
59512;SDS011;45330;51.634;5.562;2022-08-07T01:40:38;17.63;;;7.07;;
59512;SDS011;45330;51.634;5.562;2022-08-07T01:43:04;17.45;;;6.55;;
59512;SDS011;45330;51.634;5.562;2022-08-07T01:45:30;14.38;;;6.75;;
59512;SDS011;45330;51.634;5.562;2022-08-07T01:47:57;17.67;;;6.80;;
59512;SDS011;45330;51.634;5.562;2022-08-07T01:50:23;16.63;;;6.72;;
59512;SDS011;45330;51.634;5.562;2022-08-07T01:52:50;13.90;;;7.00;;
59512;SDS011;45330;51.634;5.562;2022-08-07T01:55:17;15.65;;;7.03;;
59512;SDS011;45330;51.634;5.562;2022-08-07T01:57:46;18.48;;;7.32;;
59512;SDS011;45330;51.634;5.562;2022-08-07T02:00:13;17.60;;;7.22;;
59512;SDS011;45330;51.634;5.562;2022-08-07T02:02:41;15.02;;;6.93;;
59512;SDS011;45330;51.634;5.562;2022-08-07T02:07:51;16.10;;;6.65;;
59512;SDS011;45330;51.634;5.562;2022-08-07T02:10:20;18.77;;;7.25;;
59512;SDS011;45330;51.634;5.562;2022-08-07T02:12:47;15.93;;;7.30;;
59512;SDS011;45330;51.634;5.562;2022-08-07T02:15:13;18.85;;;7.05;;
59512;SDS011;45330;51.634;5.562;2022-08-07T02:17:42;18.88;;;7.60;;
59512;SDS011;45330;51.634;5.562;2022-08-07T02:20:08;16.60;;;6.97;;
59512;SDS011;45330;51.634;5.562;2022-08-07T02:22:35;18.80;;;7.20;;
59512;SDS011;45330;51.634;5.562;2022-08-07T02:25:03;17.83;;;7.75;;
59512;SDS011;45330;51.634;5.562;2022-08-07T02:27:30;19.27;;;8.85;;
59512;SDS011;45330;51.634;5.562;2022-08-07T02:29:57;21.33;;;7.80;;
59512;SDS011;45330;51.634;5.562;2022-08-07T02:32:25;15.95;;;7.35;;
59512;SDS011;45330;51.634;5.562;2022-08-07T02:34:51;16.27;;;7.05;;
59512;SDS011;45330;51.634;5.562;2022-08-07T02:37:21;16.80;;;7.45;;
59512;SDS011;45330;51.634;5.562;2022-08-07T02:39:48;17.23;;;7.35;;
59512;SDS011;45330;51.634;5.562;2022-08-07T02:42:15;18.00;;;7.40;;
59512;SDS011;45330;51.634;5.562;2022-08-07T02:44:43;15.15;;;7.10;;
59512;SDS011;45330;51.634;5.562;2022-08-07T02:47:10;16.42;;;7.70;;
59512;SDS011;45330;51.634;5.562;2022-08-07T02:49:37;17.27;;;7.85;;
59512;SDS011;45330;51.634;5.562;2022-08-07T02:52:03;15.43;;;7.20;;
59512;SDS011;45330;51.634;5.562;2022-08-07T02:54:32;17.80;;;7.68;;
59512;SDS011;45330;51.634;5.562;2022-08-07T02:57:02;18.50;;;7.70;;
59512;SDS011;45330;51.634;5.562;2022-08-07T02:59:28;17.95;;;8.18;;
59512;SDS011;45330;51.634;5.562;2022-08-07T03:01:56;17.92;;;7.63;;
59512;SDS011;45330;51.634;5.562;2022-08-07T03:04:23;19.48;;;8.38;;
59512;SDS011;45330;51.634;5.562;2022-08-07T03:06:50;19.63;;;8.40;;
59512;SDS011;45330;51.634;5.562;2022-08-07T03:09:16;18.30;;;7.88;;
59512;SDS011;45330;51.634;5.562;2022-08-07T03:11:43;18.70;;;8.60;;
59512;SDS011;45330;51.634;5.562;2022-08-07T03:14:09;19.50;;;8.93;;
59512;SDS011;45330;51.634;5.562;2022-08-07T03:16:36;16.70;;;8.32;;
59512;SDS011;45330;51.634;5.562;2022-08-07T03:19:02;19.40;;;8.55;;
59512;SDS011;45330;51.634;5.562;2022-08-07T03:21:28;18.50;;;8.65;;
59512;SDS011;45330;51.634;5.562;2022-08-07T03:23:54;19.20;;;8.55;;
59512;SDS011;45330;51.634;5.562;2022-08-07T03:26:21;18.83;;;8.60;;
59512;SDS011;45330;51.634;5.562;2022-08-07T03:28:50;20.55;;;8.60;;
59512;SDS011;45330;51.634;5.562;2022-08-07T03:31:17;19.63;;;8.90;;
59512;SDS011;45330;51.634;5.562;2022-08-07T03:33:49;17.75;;;8.20;;
59512;SDS011;45330;51.634;5.562;2022-08-07T03:36:18;17.30;;;8.68;;
59512;SDS011;45330;51.634;5.562;2022-08-07T03:38:45;20.05;;;8.93;;
59512;SDS011;45330;51.634;5.562;2022-08-07T03:41:13;18.17;;;8.52;;
59512;SDS011;45330;51.634;5.562;2022-08-07T03:43:39;18.73;;;8.35;;
59512;SDS011;45330;51.634;5.562;2022-08-07T03:46:05;17.95;;;8.35;;
59512;SDS011;45330;51.634;5.562;2022-08-07T03:48:32;18.35;;;8.30;;
59512;SDS011;45330;51.634;5.562;2022-08-07T03:50:59;19.33;;;8.52;;
59512;SDS011;45330;51.634;5.562;2022-08-07T03:53:26;20.10;;;8.60;;
59512;SDS011;45330;51.634;5.562;2022-08-07T03:55:52;18.70;;;8.55;;
59512;SDS011;45330;51.634;5.562;2022-08-07T03:58:19;19.15;;;8.52;;
59512;SDS011;45330;51.634;5.562;2022-08-07T04:00:46;17.48;;;8.48;;
59512;SDS011;45330;51.634;5.562;2022-08-07T04:03:14;18.70;;;8.68;;
59512;SDS011;45330;51.634;5.562;2022-08-07T04:05:40;19.50;;;8.90;;
59512;SDS011;45330;51.634;5.562;2022-08-07T04:08:05;19.80;;;8.70;;
59512;SDS011;45330;51.634;5.562;2022-08-07T04:10:34;19.35;;;8.45;;
59512;SDS011;45330;51.634;5.562;2022-08-07T04:12:59;19.45;;;9.07;;
59512;SDS011;45330;51.634;5.562;2022-08-07T04:15:26;18.95;;;8.82;;
59512;SDS011;45330;51.634;5.562;2022-08-07T04:17:52;18.50;;;8.60;;
59512;SDS011;45330;51.634;5.562;2022-08-07T04:20:17;19.17;;;9.48;;
59512;SDS011;45330;51.634;5.562;2022-08-07T04:22:43;19.67;;;8.35;;
59512;SDS011;45330;51.634;5.562;2022-08-07T04:25:09;19.30;;;9.05;;
59512;SDS011;45330;51.634;5.562;2022-08-07T04:27:35;18.95;;;8.15;;
59512;SDS011;45330;51.634;5.562;2022-08-07T04:30:00;18.48;;;8.20;;
59512;SDS011;45330;51.634;5.562;2022-08-07T04:32:26;19.73;;;8.77;;
59512;SDS011;45330;51.634;5.562;2022-08-07T04:34:52;18.92;;;8.40;;
59512;SDS011;45330;51.634;5.562;2022-08-07T04:37:19;18.48;;;7.88;;
59512;SDS011;45330;51.634;5.562;2022-08-07T04:39:44;20.85;;;9.05;;
59512;SDS011;45330;51.634;5.562;2022-08-07T04:42:10;18.60;;;8.80;;
59512;SDS011;45330;51.634;5.562;2022-08-07T04:44:36;21.88;;;9.15;;
59512;SDS011;45330;51.634;5.562;2022-08-07T04:50:15;21.70;;;9.02;;
59512;SDS011;45330;51.634;5.562;2022-08-07T04:52:57;21.00;;;10.00;;
59512;SDS011;45330;51.634;5.562;2022-08-07T04:55:36;20.00;;;9.27;;
59512;SDS011;45330;51.634;5.562;2022-08-07T04:58:46;21.58;;;9.32;;
59512;SDS011;45330;51.634;5.562;2022-08-07T05:09:28;20.15;;;8.23;;
59512;SDS011;45330;51.634;5.562;2022-08-07T05:12:15;18.60;;;8.13;;
59512;SDS011;45330;51.634;5.562;2022-08-07T05:14:45;21.02;;;8.50;;
59512;SDS011;45330;51.634;5.562;2022-08-07T05:17:13;17.55;;;7.20;;
59512;SDS011;45330;51.634;5.562;2022-08-07T05:19:49;18.95;;;6.95;;
59512;SDS011;45330;51.634;5.562;2022-08-07T05:22:17;17.05;;;7.13;;
59512;SDS011;45330;51.634;5.562;2022-08-07T05:24:46;16.02;;;6.90;;
59512;SDS011;45330;51.634;5.562;2022-08-07T05:27:14;17.27;;;6.82;;
59512;SDS011;45330;51.634;5.562;2022-08-07T05:29:42;17.30;;;6.40;;
59512;SDS011;45330;51.634;5.562;2022-08-07T05:32:09;15.63;;;6.75;;
59512;SDS011;45330;51.634;5.562;2022-08-07T05:34:35;18.83;;;7.07;;
59512;SDS011;45330;51.634;5.562;2022-08-07T05:37:01;17.13;;;6.65;;
59512;SDS011;45330;51.634;5.562;2022-08-07T05:39:28;17.13;;;6.50;;
59512;SDS011;45330;51.634;5.562;2022-08-07T05:41:54;18.65;;;6.70;;
59512;SDS011;45330;51.634;5.562;2022-08-07T05:44:20;20.23;;;6.78;;
59512;SDS011;45330;51.634;5.562;2022-08-07T05:46:47;16.30;;;6.22;;
59512;SDS011;45330;51.634;5.562;2022-08-07T05:49:14;18.55;;;6.20;;
59512;SDS011;45330;51.634;5.562;2022-08-07T05:51:40;21.52;;;6.72;;
59512;SDS011;45330;51.634;5.562;2022-08-07T05:54:07;17.10;;;6.20;;
59512;SDS011;45330;51.634;5.562;2022-08-07T05:56:33;17.05;;;6.72;;
59512;SDS011;45330;51.634;5.562;2022-08-07T05:59:00;15.02;;;5.90;;
59512;SDS011;45330;51.634;5.562;2022-08-07T06:01:29;15.65;;;6.18;;
59512;SDS011;45330;51.634;5.562;2022-08-07T06:03:56;15.82;;;6.57;;
59512;SDS011;45330;51.634;5.562;2022-08-07T06:06:24;16.25;;;6.18;;
59512;SDS011;45330;51.634;5.562;2022-08-07T06:08:50;15.45;;;6.53;;
59512;SDS011;45330;51.634;5.562;2022-08-07T06:11:16;14.48;;;6.20;;
59512;SDS011;45330;51.634;5.562;2022-08-07T06:13:42;16.33;;;6.60;;
59512;SDS011;45330;51.634;5.562;2022-08-07T06:16:08;17.73;;;7.38;;
59512;SDS011;45330;51.634;5.562;2022-08-07T06:18:34;21.00;;;8.02;;
59512;SDS011;45330;51.634;5.562;2022-08-07T06:21:00;17.38;;;7.65;;
59512;SDS011;45330;51.634;5.562;2022-08-07T06:23:27;18.10;;;6.80;;
59512;SDS011;45330;51.634;5.562;2022-08-07T06:25:53;17.90;;;6.65;;
59512;SDS011;45330;51.634;5.562;2022-08-07T06:28:19;17.45;;;6.88;;
59512;SDS011;45330;51.634;5.562;2022-08-07T06:30:44;17.90;;;7.28;;
59512;SDS011;45330;51.634;5.562;2022-08-07T06:33:10;17.90;;;6.60;;
59512;SDS011;45330;51.634;5.562;2022-08-07T06:35:35;16.92;;;7.10;;
59512;SDS011;45330;51.634;5.562;2022-08-07T06:38:02;18.40;;;6.90;;
59512;SDS011;45330;51.634;5.562;2022-08-07T06:40:29;17.77;;;7.00;;
59512;SDS011;45330;51.634;5.562;2022-08-07T06:45:26;18.23;;;7.40;;
59512;SDS011;45330;51.634;5.562;2022-08-07T06:47:53;18.88;;;7.75;;
59512;SDS011;45330;51.634;5.562;2022-08-07T06:50:20;17.65;;;7.40;;
59512;SDS011;45330;51.634;5.562;2022-08-07T06:52:47;18.40;;;7.80;;
59512;SDS011;45330;51.634;5.562;2022-08-07T06:57:46;18.42;;;7.70;;
59512;SDS011;45330;51.634;5.562;2022-08-07T07:00:14;19.13;;;7.65;;
59512;SDS011;45330;51.634;5.562;2022-08-07T07:02:40;20.52;;;8.20;;
59512;SDS011;45330;51.634;5.562;2022-08-07T07:05:06;19.27;;;7.60;;
59512;SDS011;45330;51.634;5.562;2022-08-07T07:07:32;18.52;;;7.20;;
59512;SDS011;45330;51.634;5.562;2022-08-07T07:09:58;16.70;;;6.95;;
59512;SDS011;45330;51.634;5.562;2022-08-07T07:13:06;18.65;;;7.32;;
59512;SDS011;45330;51.634;5.562;2022-08-07T07:15:24;18.75;;;7.07;;
59512;SDS011;45330;51.634;5.562;2022-08-07T07:18:06;17.38;;;6.95;;
59512;SDS011;45330;51.634;5.562;2022-08-07T07:23:20;17.55;;;6.82;;
59512;SDS011;45330;51.634;5.562;2022-08-07T07:25:48;17.17;;;6.30;;
59512;SDS011;45330;51.634;5.562;2022-08-07T07:28:38;17.67;;;6.55;;
59512;SDS011;45330;51.634;5.562;2022-08-07T07:31:18;19.10;;;6.22;;
59512;SDS011;45330;51.634;5.562;2022-08-07T07:33:47;16.08;;;6.10;;
59512;SDS011;45330;51.634;5.562;2022-08-07T07:36:16;14.75;;;5.90;;
59512;SDS011;45330;51.634;5.562;2022-08-07T07:38:42;17.85;;;6.20;;
59512;SDS011;45330;51.634;5.562;2022-08-07T07:41:09;16.90;;;6.47;;
59512;SDS011;45330;51.634;5.562;2022-08-07T07:43:40;18.60;;;6.70;;
59512;SDS011;45330;51.634;5.562;2022-08-07T07:46:07;17.77;;;7.03;;
59512;SDS011;45330;51.634;5.562;2022-08-07T07:48:33;16.77;;;6.85;;
59512;SDS011;45330;51.634;5.562;2022-08-07T07:51:00;15.90;;;6.25;;
59512;SDS011;45330;51.634;5.562;2022-08-07T07:53:26;17.27;;;6.60;;
59512;SDS011;45330;51.634;5.562;2022-08-07T07:55:52;17.27;;;6.95;;
59512;SDS011;45330;51.634;5.562;2022-08-07T08:00:52;15.82;;;6.22;;
59512;SDS011;45330;51.634;5.562;2022-08-07T08:03:19;16.90;;;6.60;;
59512;SDS011;45330;51.634;5.562;2022-08-07T08:05:47;13.77;;;5.72;;
59512;SDS011;45330;51.634;5.562;2022-08-07T08:08:14;16.25;;;6.00;;
59512;SDS011;45330;51.634;5.562;2022-08-07T08:10:41;13.77;;;5.30;;
59512;SDS011;45330;51.634;5.562;2022-08-07T08:13:07;15.50;;;6.00;;
59512;SDS011;45330;51.634;5.562;2022-08-07T08:15:35;16.40;;;6.35;;
59512;SDS011;45330;51.634;5.562;2022-08-07T08:18:04;15.68;;;5.88;;
59512;SDS011;45330;51.634;5.562;2022-08-07T08:20:33;15.30;;;5.95;;
59512;SDS011;45330;51.634;5.562;2022-08-07T08:22:59;15.77;;;5.95;;
59512;SDS011;45330;51.634;5.562;2022-08-07T08:25:45;14.52;;;5.38;;
59512;SDS011;45330;51.634;5.562;2022-08-07T08:28:34;15.35;;;6.13;;
59512;SDS011;45330;51.634;5.562;2022-08-07T08:31:02;16.92;;;5.88;;
59512;SDS011;45330;51.634;5.562;2022-08-07T08:33:30;18.58;;;6.35;;
59512;SDS011;45330;51.634;5.562;2022-08-07T08:35:58;13.90;;;5.35;;
59512;SDS011;45330;51.634;5.562;2022-08-07T08:38:26;13.93;;;5.40;;
59512;SDS011;45330;51.634;5.562;2022-08-07T08:43:32;16.20;;;5.10;;
59512;SDS011;45330;51.634;5.562;2022-08-07T08:46:05;18.25;;;5.45;;
59512;SDS011;45330;51.634;5.562;2022-08-07T08:48:38;11.98;;;4.88;;
59512;SDS011;45330;51.634;5.562;2022-08-07T08:57:17;10.50;;;3.90;;
59512;SDS011;45330;51.634;5.562;2022-08-07T08:59:53;12.15;;;4.70;;
59512;SDS011;45330;51.634;5.562;2022-08-07T09:14:23;12.73;;;4.68;;
59512;SDS011;45330;51.634;5.562;2022-08-07T09:17:10;9.80;;;4.10;;
59512;SDS011;45330;51.634;5.562;2022-08-07T09:20:53;14.13;;;4.75;;
59512;SDS011;45330;51.634;5.562;2022-08-07T09:32:01;13.02;;;4.80;;
59512;SDS011;45330;51.634;5.562;2022-08-07T09:34:36;13.50;;;5.22;;
59512;SDS011;45330;51.634;5.562;2022-08-07T09:37:37;12.40;;;4.80;;
59512;SDS011;45330;51.634;5.562;2022-08-07T09:45:17;12.38;;;5.00;;
59512;SDS011;45330;51.634;5.562;2022-08-07T09:53:37;13.68;;;5.10;;
59512;SDS011;45330;51.634;5.562;2022-08-07T10:07:17;10.68;;;4.43;;
59512;SDS011;45330;51.634;5.562;2022-08-07T10:16:24;13.52;;;4.47;;
59512;SDS011;45330;51.634;5.562;2022-08-07T10:21:48;11.63;;;4.60;;
59512;SDS011;45330;51.634;5.562;2022-08-07T10:25:03;13.18;;;4.60;;
59512;SDS011;45330;51.634;5.562;2022-08-07T10:35:25;7.60;;;3.67;;
59512;SDS011;45330;51.634;5.562;2022-08-07T10:40:50;9.48;;;3.63;;
59512;SDS011;45330;51.634;5.562;2022-08-07T10:43:26;12.13;;;4.00;;
59512;SDS011;45330;51.634;5.562;2022-08-07T10:45:58;8.65;;;3.55;;
59512;SDS011;45330;51.634;5.562;2022-08-07T10:48:29;11.57;;;4.35;;
59512;SDS011;45330;51.634;5.562;2022-08-07T10:51:15;10.73;;;3.97;;
59512;SDS011;45330;51.634;5.562;2022-08-07T10:54:27;11.63;;;4.03;;
59512;SDS011;45330;51.634;5.562;2022-08-07T11:10:51;10.50;;;3.67;;
59512;SDS011;45330;51.634;5.562;2022-08-07T11:13:38;8.80;;;3.80;;
59512;SDS011;45330;51.634;5.562;2022-08-07T11:16:21;11.38;;;4.00;;
59512;SDS011;45330;51.634;5.562;2022-08-07T11:18:53;8.82;;;3.75;;
59512;SDS011;45330;51.634;5.562;2022-08-07T11:21:59;8.88;;;3.80;;
59512;SDS011;45330;51.634;5.562;2022-08-07T11:29:42;9.60;;;3.80;;
59512;SDS011;45330;51.634;5.562;2022-08-07T11:32:17;10.73;;;3.97;;
59512;SDS011;45330;51.634;5.562;2022-08-07T11:34:52;5.40;;;3.25;;
59512;SDS011;45330;51.634;5.562;2022-08-07T11:37:38;8.07;;;3.42;;
59512;SDS011;45330;51.634;5.562;2022-08-07T11:40:17;7.53;;;3.20;;
59512;SDS011;45330;51.634;5.562;2022-08-07T11:43:16;8.27;;;3.17;;
59512;SDS011;45330;51.634;5.562;2022-08-07T11:53:49;7.88;;;3.13;;
59512;SDS011;45330;51.634;5.562;2022-08-07T12:02:32;11.25;;;3.30;;
59512;SDS011;45330;51.634;5.562;2022-08-07T12:05:28;7.82;;;3.28;;
59512;SDS011;45330;51.634;5.562;2022-08-07T12:08:21;10.70;;;3.30;;
59512;SDS011;45330;51.634;5.562;2022-08-07T12:10:55;8.65;;;2.88;;
59512;SDS011;45330;51.634;5.562;2022-08-07T12:13:22;7.38;;;2.90;;
59512;SDS011;45330;51.634;5.562;2022-08-07T12:15:54;6.68;;;2.70;;
59512;SDS011;45330;51.634;5.562;2022-08-07T12:23:51;7.53;;;3.10;;
59512;SDS011;45330;51.634;5.562;2022-08-07T12:29:18;9.43;;;2.70;;
59512;SDS011;45330;51.634;5.562;2022-08-07T12:34:46;6.15;;;2.70;;
59512;SDS011;45330;51.634;5.562;2022-08-07T12:37:12;5.97;;;2.83;;
59512;SDS011;45330;51.634;5.562;2022-08-07T12:39:42;6.10;;;2.70;;
59512;SDS011;45330;51.634;5.562;2022-08-07T12:42:13;8.10;;;2.78;;
59512;SDS011;45330;51.634;5.562;2022-08-07T12:44:42;5.57;;;2.60;;
59512;SDS011;45330;51.634;5.562;2022-08-07T12:47:20;5.10;;;2.80;;
59512;SDS011;45330;51.634;5.562;2022-08-07T12:52:47;8.85;;;2.90;;
59512;SDS011;45330;51.634;5.562;2022-08-07T12:55:24;5.82;;;3.13;;
59512;SDS011;45330;51.634;5.562;2022-08-07T12:57:53;5.43;;;2.80;;
59512;SDS011;45330;51.634;5.562;2022-08-07T13:00:26;6.05;;;2.38;;
59512;SDS011;45330;51.634;5.562;2022-08-07T13:03:09;5.35;;;2.55;;
59512;SDS011;45330;51.634;5.562;2022-08-07T13:05:57;5.40;;;2.60;;
59512;SDS011;45330;51.634;5.562;2022-08-07T13:08:55;6.07;;;2.60;;
59512;SDS011;45330;51.634;5.562;2022-08-07T13:12:25;7.88;;;2.65;;
59512;SDS011;45330;51.634;5.562;2022-08-07T13:19:42;5.15;;;2.80;;
59512;SDS011;45330;51.634;5.562;2022-08-07T13:25:02;5.78;;;2.70;;
59512;SDS011;45330;51.634;5.562;2022-08-07T13:28:11;6.63;;;2.72;;
59512;SDS011;45330;51.634;5.562;2022-08-07T13:30:51;6.97;;;2.42;;
59512;SDS011;45330;51.634;5.562;2022-08-07T13:33:32;5.15;;;2.78;;
59512;SDS011;45330;51.634;5.562;2022-08-07T13:36:07;7.18;;;3.08;;
59512;SDS011;45330;51.634;5.562;2022-08-07T13:38:43;5.47;;;2.50;;
59512;SDS011;45330;51.634;5.562;2022-08-07T13:44:00;4.93;;;2.55;;
59512;SDS011;45330;51.634;5.562;2022-08-07T13:46:27;7.35;;;2.47;;
59512;SDS011;45330;51.634;5.562;2022-08-07T13:48:55;8.55;;;2.95;;
59512;SDS011;45330;51.634;5.562;2022-08-07T13:51:26;7.25;;;2.60;;
59512;SDS011;45330;51.634;5.562;2022-08-07T13:53:55;4.88;;;2.38;;
59512;SDS011;45330;51.634;5.562;2022-08-07T13:56:24;6.72;;;2.60;;
59512;SDS011;45330;51.634;5.562;2022-08-07T13:58:51;6.72;;;2.40;;
59512;SDS011;45330;51.634;5.562;2022-08-07T14:01:31;4.68;;;2.60;;
59512;SDS011;45330;51.634;5.562;2022-08-07T14:04:07;5.80;;;2.60;;
59512;SDS011;45330;51.634;5.562;2022-08-07T14:06:39;5.25;;;2.40;;
59512;SDS011;45330;51.634;5.562;2022-08-07T14:09:06;5.55;;;2.63;;
59512;SDS011;45330;51.634;5.562;2022-08-07T14:11:35;6.10;;;2.63;;
59512;SDS011;45330;51.634;5.562;2022-08-07T14:14:09;5.80;;;2.58;;
59512;SDS011;45330;51.634;5.562;2022-08-07T14:16:39;4.53;;;2.50;;
59512;SDS011;45330;51.634;5.562;2022-08-07T14:19:12;4.85;;;2.50;;
59512;SDS011;45330;51.634;5.562;2022-08-07T14:21:42;6.05;;;2.47;;
59512;SDS011;45330;51.634;5.562;2022-08-07T14:26:59;4.10;;;2.47;;
59512;SDS011;45330;51.634;5.562;2022-08-07T14:29:36;4.72;;;2.40;;
59512;SDS011;45330;51.634;5.562;2022-08-07T14:32:05;5.03;;;2.60;;
59512;SDS011;45330;51.634;5.562;2022-08-07T14:34:36;7.18;;;2.50;;
59512;SDS011;45330;51.634;5.562;2022-08-07T14:37:07;6.53;;;2.40;;
59512;SDS011;45330;51.634;5.562;2022-08-07T14:39:39;5.93;;;2.47;;
59512;SDS011;45330;51.634;5.562;2022-08-07T14:44:44;4.75;;;2.30;;
59512;SDS011;45330;51.634;5.562;2022-08-07T14:47:17;7.63;;;2.50;;
59512;SDS011;45330;51.634;5.562;2022-08-07T14:49:44;7.40;;;2.53;;
59512;SDS011;45330;51.634;5.562;2022-08-07T14:52:12;9.40;;;2.58;;
59512;SDS011;45330;51.634;5.562;2022-08-07T14:54:39;5.45;;;2.53;;
59512;SDS011;45330;51.634;5.562;2022-08-07T14:57:08;5.40;;;2.55;;
59512;SDS011;45330;51.634;5.562;2022-08-07T14:59:35;5.65;;;2.30;;
59512;SDS011;45330;51.634;5.562;2022-08-07T15:02:22;7.15;;;2.58;;
59512;SDS011;45330;51.634;5.562;2022-08-07T15:04:50;4.43;;;2.55;;
59512;SDS011;45330;51.634;5.562;2022-08-07T15:07:17;5.28;;;2.20;;
59512;SDS011;45330;51.634;5.562;2022-08-07T15:09:46;4.70;;;2.47;;
59512;SDS011;45330;51.634;5.562;2022-08-07T15:12:34;3.75;;;2.42;;
59512;SDS011;45330;51.634;5.562;2022-08-07T15:15:08;6.63;;;2.40;;
59512;SDS011;45330;51.634;5.562;2022-08-07T15:17:39;5.07;;;2.70;;
59512;SDS011;45330;51.634;5.562;2022-08-07T15:20:08;6.60;;;2.80;;
59512;SDS011;45330;51.634;5.562;2022-08-07T15:22:46;6.68;;;2.42;;
59512;SDS011;45330;51.634;5.562;2022-08-07T15:25:17;6.03;;;2.38;;
59512;SDS011;45330;51.634;5.562;2022-08-07T15:27:50;6.20;;;2.40;;
59512;SDS011;45330;51.634;5.562;2022-08-07T15:30:20;2.80;;;2.15;;
59512;SDS011;45330;51.634;5.562;2022-08-07T15:32:47;5.00;;;2.25;;
59512;SDS011;45330;51.634;5.562;2022-08-07T15:35:15;5.10;;;2.40;;
59512;SDS011;45330;51.634;5.562;2022-08-07T15:37:48;7.95;;;2.63;;
59512;SDS011;45330;51.634;5.562;2022-08-07T15:40:18;4.90;;;2.33;;
59512;SDS011;45330;51.634;5.562;2022-08-07T15:42:46;6.15;;;2.53;;
59512;SDS011;45330;51.634;5.562;2022-08-07T15:48:02;3.58;;;2.30;;
59512;SDS011;45330;51.634;5.562;2022-08-07T15:50:33;3.25;;;2.20;;
59512;SDS011;45330;51.634;5.562;2022-08-07T15:53:09;5.90;;;2.38;;
59512;SDS011;45330;51.634;5.562;2022-08-07T15:55:38;6.55;;;2.50;;
59512;SDS011;45330;51.634;5.562;2022-08-07T15:58:15;5.88;;;2.30;;
59512;SDS011;45330;51.634;5.562;2022-08-07T16:00:42;4.50;;;2.35;;
59512;SDS011;45330;51.634;5.562;2022-08-07T16:03:11;5.13;;;2.22;;
59512;SDS011;45330;51.634;5.562;2022-08-07T16:05:43;5.10;;;2.60;;
59512;SDS011;45330;51.634;5.562;2022-08-07T16:08:11;6.43;;;2.78;;
59512;SDS011;45330;51.634;5.562;2022-08-07T16:10:40;5.68;;;2.55;;
59512;SDS011;45330;51.634;5.562;2022-08-07T16:18:34;6.05;;;2.30;;
59512;SDS011;45330;51.634;5.562;2022-08-07T16:24:24;6.60;;;2.40;;
59512;SDS011;45330;51.634;5.562;2022-08-07T16:32:00;3.78;;;2.15;;
59512;SDS011;45330;51.634;5.562;2022-08-07T16:37:13;5.13;;;2.20;;
59512;SDS011;45330;51.634;5.562;2022-08-07T16:50:48;5.88;;;2.50;;
59512;SDS011;45330;51.634;5.562;2022-08-07T17:07:46;7.85;;;3.30;;
59512;SDS011;45330;51.634;5.562;2022-08-07T17:15:35;5.53;;;2.60;;
59512;SDS011;45330;51.634;5.562;2022-08-07T17:20:49;7.80;;;3.00;;
59512;SDS011;45330;51.634;5.562;2022-08-07T17:23:31;10.52;;;3.90;;
59512;SDS011;45330;51.634;5.562;2022-08-07T17:29:03;7.75;;;2.90;;
59512;SDS011;45330;51.634;5.562;2022-08-07T17:31:33;8.32;;;3.00;;
59512;SDS011;45330;51.634;5.562;2022-08-07T17:37:19;6.28;;;2.88;;
59512;SDS011;45330;51.634;5.562;2022-08-07T17:39:54;6.85;;;2.90;;
59512;SDS011;45330;51.634;5.562;2022-08-07T17:45:05;7.32;;;2.90;;
59512;SDS011;45330;51.634;5.562;2022-08-07T17:48:09;10.57;;;2.70;;
59512;SDS011;45330;51.634;5.562;2022-08-07T17:50:36;8.50;;;2.80;;
59512;SDS011;45330;51.634;5.562;2022-08-07T17:53:06;5.30;;;2.53;;
59512;SDS011;45330;51.634;5.562;2022-08-07T17:58:30;5.63;;;2.38;;
59512;SDS011;45330;51.634;5.562;2022-08-07T18:01:04;5.53;;;2.55;;
59512;SDS011;45330;51.634;5.562;2022-08-07T18:03:44;5.22;;;2.45;;
59512;SDS011;45330;51.634;5.562;2022-08-07T18:06:15;6.53;;;2.50;;
59512;SDS011;45330;51.634;5.562;2022-08-07T18:08:50;8.20;;;2.60;;
59512;SDS011;45330;51.634;5.562;2022-08-07T18:11:20;6.68;;;3.13;;
59512;SDS011;45330;51.634;5.562;2022-08-07T18:18:56;5.25;;;2.40;;
59512;SDS011;45330;51.634;5.562;2022-08-07T18:21:32;5.65;;;2.58;;
59512;SDS011;45330;51.634;5.562;2022-08-07T18:32:10;6.18;;;2.20;;
59512;SDS011;45330;51.634;5.562;2022-08-07T18:48:37;7.72;;;3.03;;
59512;SDS011;45330;51.634;5.562;2022-08-07T18:51:22;7.82;;;2.80;;
59512;SDS011;45330;51.634;5.562;2022-08-07T18:56:50;9.38;;;3.03;;
59512;SDS011;45330;51.634;5.562;2022-08-07T19:02:06;7.47;;;3.38;;
59512;SDS011;45330;51.634;5.562;2022-08-07T19:10:30;9.55;;;3.17;;
59512;SDS011;45330;51.634;5.562;2022-08-07T19:21:15;6.43;;;2.60;;
59512;SDS011;45330;51.634;5.562;2022-08-07T19:23:55;8.25;;;2.85;;
59512;SDS011;45330;51.634;5.562;2022-08-07T19:26:27;7.32;;;2.97;;
59512;SDS011;45330;51.634;5.562;2022-08-07T19:29:01;8.25;;;3.13;;
59512;SDS011;45330;51.634;5.562;2022-08-07T19:31:35;6.80;;;2.88;;